sensor_id;sensor_type;location;lat;lon;timestamp;pressure;altitude;pressure_sealevel;temperature;humidity
20115;BME280;10218;42.874;25.320;2023-08-08T00:02:02;97058.97;;;17.87;100.00
20115;BME280;10218;42.874;25.320;2023-08-08T00:04:30;97049.41;;;17.60;100.00
20115;BME280;10218;42.874;25.320;2023-08-08T00:06:57;97049.66;;;17.51;100.00
20115;BME280;10218;42.874;25.320;2023-08-08T00:09:24;97037.91;;;17.71;100.00
20115;BME280;10218;42.874;25.320;2023-08-08T00:11:51;97045.81;;;18.15;100.00
20115;BME280;10218;42.874;25.320;2023-08-08T00:14:18;97029.28;;;18.05;100.00
20115;BME280;10218;42.874;25.320;2023-08-08T00:16:45;97041.19;;;18.22;100.00
20115;BME280;10218;42.874;25.320;2023-08-08T00:19:12;97033.75;;;18.18;100.00
20115;BME280;10218;42.874;25.320;2023-08-08T00:21:39;97034.16;;;17.72;100.00
20115;BME280;10218;42.874;25.320;2023-08-08T00:24:06;97033.56;;;18.37;100.00
20115;BME280;10218;42.874;25.320;2023-08-08T00:26:34;97035.25;;;17.58;100.00
20115;BME280;10218;42.874;25.320;2023-08-08T00:29:01;97032.38;;;17.84;100.00
20115;BME280;10218;42.874;25.320;2023-08-08T00:31:28;97020.00;;;18.19;100.00
20115;BME280;10218;42.874;25.320;2023-08-08T00:33:55;97018.16;;;17.95;100.00
20115;BME280;10218;42.874;25.320;2023-08-08T00:36:22;97029.91;;;17.82;100.00
20115;BME280;10218;42.874;25.320;2023-08-08T00:38:49;97034.59;;;18.18;100.00
20115;BME280;10218;42.874;25.320;2023-08-08T00:41:16;97025.28;;;18.32;100.00
20115;BME280;10218;42.874;25.320;2023-08-08T00:43:43;96984.84;;;18.01;100.00
20115;BME280;10218;42.874;25.320;2023-08-08T00:46:11;97017.59;;;18.11;100.00
20115;BME280;10218;42.874;25.320;2023-08-08T00:48:38;97015.50;;;18.50;100.00
20115;BME280;10218;42.874;25.320;2023-08-08T00:51:05;97019.00;;;18.57;100.00
20115;BME280;10218;42.874;25.320;2023-08-08T00:53:32;97026.41;;;18.43;100.00
20115;BME280;10218;42.874;25.320;2023-08-08T00:56:00;97024.22;;;18.52;100.00
20115;BME280;10218;42.874;25.320;2023-08-08T00:58:27;97030.63;;;17.71;100.00
20115;BME280;10218;42.874;25.320;2023-08-08T01:00:55;97019.16;;;18.19;100.00
20115;BME280;10218;42.874;25.320;2023-08-08T01:03:24;97008.19;;;18.14;100.00
20115;BME280;10218;42.874;25.320;2023-08-08T01:05:59;97010.16;;;18.25;100.00
20115;BME280;10218;42.874;25.320;2023-08-08T01:08:35;97021.19;;;18.05;100.00
20115;BME280;10218;42.874;25.320;2023-08-08T01:11:03;97031.88;;;17.93;100.00
20115;BME280;10218;42.874;25.320;2023-08-08T01:13:31;97026.16;;;18.26;100.00
20115;BME280;10218;42.874;25.320;2023-08-08T01:16:00;97052.06;;;18.16;100.00
20115;BME280;10218;42.874;25.320;2023-08-08T01:18:30;97066.13;;;17.75;100.00
20115;BME280;10218;42.874;25.320;2023-08-08T01:20:59;97079.78;;;17.86;100.00
20115;BME280;10218;42.874;25.320;2023-08-08T01:23:34;97073.13;;;17.51;100.00
20115;BME280;10218;42.874;25.320;2023-08-08T01:26:07;97072.84;;;17.66;100.00
20115;BME280;10218;42.874;25.320;2023-08-08T01:28:35;97070.75;;;17.68;100.00
20115;BME280;10218;42.874;25.320;2023-08-08T01:31:02;97070.38;;;17.58;100.00
20115;BME280;10218;42.874;25.320;2023-08-08T01:33:30;97084.72;;;17.27;100.00
20115;BME280;10218;42.874;25.320;2023-08-08T01:36:02;97061.94;;;17.09;100.00
20115;BME280;10218;42.874;25.320;2023-08-08T01:41:00;97072.28;;;17.19;100.00
20115;BME280;10218;42.874;25.320;2023-08-08T01:43:29;97058.19;;;17.48;100.00
20115;BME280;10218;42.874;25.320;2023-08-08T01:45:59;97035.16;;;17.46;100.00
20115;BME280;10218;42.874;25.320;2023-08-08T01:48:27;97047.66;;;17.40;100.00
20115;BME280;10218;42.874;25.320;2023-08-08T01:50:54;97046.78;;;17.46;100.00
20115;BME280;10218;42.874;25.320;2023-08-08T01:53:22;97036.94;;;16.89;100.00
20115;BME280;10218;42.874;25.320;2023-08-08T01:55:49;97043.25;;;16.70;100.00
20115;BME280;10218;42.874;25.320;2023-08-08T01:58:16;97049.22;;;16.79;100.00
20115;BME280;10218;42.874;25.320;2023-08-08T02:00:43;97037.00;;;17.14;100.00
20115;BME280;10218;42.874;25.320;2023-08-08T02:03:12;97029.94;;;17.13;100.00
20115;BME280;10218;42.874;25.320;2023-08-08T02:05:39;97041.59;;;17.07;100.00
20115;BME280;10218;42.874;25.320;2023-08-08T02:08:07;97047.06;;;16.94;100.00
20115;BME280;10218;42.874;25.320;2023-08-08T02:10:34;97050.09;;;16.53;100.00
20115;BME280;10218;42.874;25.320;2023-08-08T02:13:01;97054.25;;;17.13;100.00
20115;BME280;10218;42.874;25.320;2023-08-08T02:15:28;97034.84;;;17.29;100.00
20115;BME280;10218;42.874;25.320;2023-08-08T02:17:59;97040.69;;;17.26;100.00
20115;BME280;10218;42.874;25.320;2023-08-08T02:20:27;97042.84;;;16.53;100.00
20115;BME280;10218;42.874;25.320;2023-08-08T02:22:54;97033.91;;;17.10;100.00
20115;BME280;10218;42.874;25.320;2023-08-08T02:25:21;97052.00;;;17.03;100.00
20115;BME280;10218;42.874;25.320;2023-08-08T02:27:48;97047.47;;;16.97;100.00
20115;BME280;10218;42.874;25.320;2023-08-08T02:30:15;97045.72;;;17.16;100.00
20115;BME280;10218;42.874;25.320;2023-08-08T02:32:43;97036.56;;;17.17;100.00
20115;BME280;10218;42.874;25.320;2023-08-08T02:35:10;97034.53;;;16.68;100.00
20115;BME280;10218;42.874;25.320;2023-08-08T02:37:37;97046.25;;;16.87;100.00
20115;BME280;10218;42.874;25.320;2023-08-08T02:40:06;97055.47;;;16.73;100.00
20115;BME280;10218;42.874;25.320;2023-08-08T02:42:33;97048.59;;;17.21;100.00
20115;BME280;10218;42.874;25.320;2023-08-08T02:45:01;97050.63;;;16.88;100.00
20115;BME280;10218;42.874;25.320;2023-08-08T02:47:28;97072.19;;;17.01;100.00
20115;BME280;10218;42.874;25.320;2023-08-08T02:49:55;97073.28;;;17.25;100.00
20115;BME280;10218;42.874;25.320;2023-08-08T02:52:22;97084.66;;;17.33;100.00
20115;BME280;10218;42.874;25.320;2023-08-08T02:54:49;97067.28;;;17.54;100.00
20115;BME280;10218;42.874;25.320;2023-08-08T02:57:16;97045.63;;;17.29;100.00
20115;BME280;10218;42.874;25.320;2023-08-08T02:59:44;97075.66;;;17.08;100.00
20115;BME280;10218;42.874;25.320;2023-08-08T03:02:11;97099.81;;;16.96;100.00
20115;BME280;10218;42.874;25.320;2023-08-08T03:04:38;97116.84;;;16.90;100.00
20115;BME280;10218;42.874;25.320;2023-08-08T03:07:06;97133.59;;;17.05;100.00
20115;BME280;10218;42.874;25.320;2023-08-08T03:09:34;97130.47;;;17.08;100.00
20115;BME280;10218;42.874;25.320;2023-08-08T03:12:01;97121.34;;;17.09;100.00
20115;BME280;10218;42.874;25.320;2023-08-08T03:14:29;97115.44;;;16.75;100.00
20115;BME280;10218;42.874;25.320;2023-08-08T03:16:57;97143.87;;;16.57;100.00
20115;BME280;10218;42.874;25.320;2023-08-08T03:19:25;97159.19;;;16.83;100.00
20115;BME280;10218;42.874;25.320;2023-08-08T03:21:53;97158.81;;;16.80;100.00
20115;BME280;10218;42.874;25.320;2023-08-08T03:24:20;97133.88;;;16.78;100.00
20115;BME280;10218;42.874;25.320;2023-08-08T03:26:48;97157.34;;;16.57;100.00
20115;BME280;10218;42.874;25.320;2023-08-08T03:29:15;97150.34;;;16.30;100.00
20115;BME280;10218;42.874;25.320;2023-08-08T03:31:43;97158.75;;;16.93;100.00
20115;BME280;10218;42.874;25.320;2023-08-08T03:34:10;97167.13;;;16.32;100.00
20115;BME280;10218;42.874;25.320;2023-08-08T03:36:38;97172.09;;;16.75;100.00
20115;BME280;10218;42.874;25.320;2023-08-08T03:39:07;97150.09;;;16.58;100.00
20115;BME280;10218;42.874;25.320;2023-08-08T03:41:34;97171.22;;;16.87;100.00
20115;BME280;10218;42.874;25.320;2023-08-08T03:44:03;97166.25;;;16.91;100.00
20115;BME280;10218;42.874;25.320;2023-08-08T03:46:30;97169.59;;;16.86;100.00
20115;BME280;10218;42.874;25.320;2023-08-08T03:48:57;97170.44;;;16.74;100.00
20115;BME280;10218;42.874;25.320;2023-08-08T03:51:25;97186.63;;;16.54;100.00
20115;BME280;10218;42.874;25.320;2023-08-08T03:53:52;97193.06;;;16.33;100.00
20115;BME280;10218;42.874;25.320;2023-08-08T03:56:19;97197.81;;;16.31;100.00
20115;BME280;10218;42.874;25.320;2023-08-08T03:58:47;97188.28;;;16.29;100.00
20115;BME280;10218;42.874;25.320;2023-08-08T04:01:14;97191.16;;;16.47;100.00
20115;BME280;10218;42.874;25.320;2023-08-08T04:03:42;97184.12;;;16.33;100.00
20115;BME280;10218;42.874;25.320;2023-08-08T04:06:09;97191.81;;;16.55;100.00
20115;BME280;10218;42.874;25.320;2023-08-08T04:08:36;97197.16;;;16.88;100.00
20115;BME280;10218;42.874;25.320;2023-08-08T04:11:03;97204.22;;;16.56;100.00
20115;BME280;10218;42.874;25.320;2023-08-08T04:13:30;97210.03;;;16.20;100.00
20115;BME280;10218;42.874;25.320;2023-08-08T04:15:57;97218.56;;;16.37;100.00
20115;BME280;10218;42.874;25.320;2023-08-08T04:18:24;97214.81;;;16.18;100.00
20115;BME280;10218;42.874;25.320;2023-08-08T04:20:51;97221.03;;;16.32;100.00
20115;BME280;10218;42.874;25.320;2023-08-08T04:23:18;97232.25;;;16.42;100.00
20115;BME280;10218;42.874;25.320;2023-08-08T04:25:46;97222.91;;;16.51;100.00
20115;BME280;10218;42.874;25.320;2023-08-08T04:28:13;97229.56;;;16.88;100.00
20115;BME280;10218;42.874;25.320;2023-08-08T04:30:40;97230.78;;;16.99;100.00
20115;BME280;10218;42.874;25.320;2023-08-08T04:33:07;97223.94;;;16.77;100.00
20115;BME280;10218;42.874;25.320;2023-08-08T04:35:34;97232.63;;;16.13;100.00
20115;BME280;10218;42.874;25.320;2023-08-08T04:38:01;97234.37;;;16.60;100.00
20115;BME280;10218;42.874;25.320;2023-08-08T04:40:28;97244.50;;;16.91;100.00
20115;BME280;10218;42.874;25.320;2023-08-08T04:42:56;97234.13;;;17.01;100.00
20115;BME280;10218;42.874;25.320;2023-08-08T04:45:23;97233.09;;;16.69;100.00
20115;BME280;10218;42.874;25.320;2023-08-08T04:47:50;97249.03;;;17.10;100.00
20115;BME280;10218;42.874;25.320;2023-08-08T04:50:17;97250.09;;;16.96;100.00
20115;BME280;10218;42.874;25.320;2023-08-08T04:52:44;97249.03;;;17.10;100.00
20115;BME280;10218;42.874;25.320;2023-08-08T04:55:11;97241.37;;;16.94;100.00
20115;BME280;10218;42.874;25.320;2023-08-08T04:57:38;97238.94;;;16.59;100.00
20115;BME280;10218;42.874;25.320;2023-08-08T05:00:06;97238.47;;;16.89;100.00
20115;BME280;10218;42.874;25.320;2023-08-08T05:02:35;97241.56;;;16.46;100.00
20115;BME280;10218;42.874;25.320;2023-08-08T05:05:03;97256.97;;;16.79;100.00
20115;BME280;10218;42.874;25.320;2023-08-08T05:07:30;97269.41;;;16.80;100.00
20115;BME280;10218;42.874;25.320;2023-08-08T05:09:57;97278.91;;;16.56;100.00
20115;BME280;10218;42.874;25.320;2023-08-08T05:12:24;97279.56;;;16.71;100.00
20115;BME280;10218;42.874;25.320;2023-08-08T05:14:51;97283.12;;;16.91;100.00
20115;BME280;10218;42.874;25.320;2023-08-08T05:17:19;97281.44;;;17.03;100.00
20115;BME280;10218;42.874;25.320;2023-08-08T05:19:46;97290.53;;;17.29;100.00
20115;BME280;10218;42.874;25.320;2023-08-08T05:22:13;97283.28;;;17.03;100.00
20115;BME280;10218;42.874;25.320;2023-08-08T05:24:40;97282.91;;;17.06;100.00
20115;BME280;10218;42.874;25.320;2023-08-08T05:27:07;97279.78;;;16.83;100.00
20115;BME280;10218;42.874;25.320;2023-08-08T05:29:34;97277.03;;;17.22;100.00
20115;BME280;10218;42.874;25.320;2023-08-08T05:32:05;97289.13;;;17.06;100.00
20115;BME280;10218;42.874;25.320;2023-08-08T05:34:34;97288.50;;;17.04;100.00
20115;BME280;10218;42.874;25.320;2023-08-08T05:37:01;97282.81;;;17.32;100.00
20115;BME280;10218;42.874;25.320;2023-08-08T05:39:36;97285.72;;;17.37;100.00
20115;BME280;10218;42.874;25.320;2023-08-08T05:42:03;97296.13;;;17.27;100.00
20115;BME280;10218;42.874;25.320;2023-08-08T05:44:30;97296.56;;;17.24;100.00
20115;BME280;10218;42.874;25.320;2023-08-08T05:46:58;97289.72;;;17.02;100.00
20115;BME280;10218;42.874;25.320;2023-08-08T05:49:25;97290.34;;;17.10;100.00
20115;BME280;10218;42.874;25.320;2023-08-08T05:51:52;97292.00;;;17.25;100.00
20115;BME280;10218;42.874;25.320;2023-08-08T05:54:19;97295.34;;;17.00;100.00
20115;BME280;10218;42.874;25.320;2023-08-08T05:56:46;97298.62;;;17.29;100.00
20115;BME280;10218;42.874;25.320;2023-08-08T05:59:13;97298.81;;;17.27;100.00
20115;BME280;10218;42.874;25.320;2023-08-08T06:01:40;97310.91;;;17.05;100.00
20115;BME280;10218;42.874;25.320;2023-08-08T06:04:08;97300.53;;;17.02;100.00
20115;BME280;10218;42.874;25.320;2023-08-08T06:06:35;97313.38;;;17.13;100.00
20115;BME280;10218;42.874;25.320;2023-08-08T06:09:02;97321.84;;;17.43;100.00
20115;BME280;10218;42.874;25.320;2023-08-08T06:11:30;97319.00;;;17.05;100.00
20115;BME280;10218;42.874;25.320;2023-08-08T06:13:57;97315.41;;;17.37;100.00
20115;BME280;10218;42.874;25.320;2023-08-08T06:16:24;97292.78;;;17.38;100.00
20115;BME280;10218;42.874;25.320;2023-08-08T06:18:52;97295.25;;;17.46;100.00
20115;BME280;10218;42.874;25.320;2023-08-08T06:21:19;97310.00;;;17.50;100.00
20115;BME280;10218;42.874;25.320;2023-08-08T06:23:46;97324.53;;;17.63;100.00
20115;BME280;10218;42.874;25.320;2023-08-08T06:26:14;97332.00;;;17.47;100.00
20115;BME280;10218;42.874;25.320;2023-08-08T06:28:41;97339.56;;;17.26;100.00
20115;BME280;10218;42.874;25.320;2023-08-08T06:31:08;97337.62;;;17.59;100.00
20115;BME280;10218;42.874;25.320;2023-08-08T06:33:36;97326.50;;;17.16;100.00
20115;BME280;10218;42.874;25.320;2023-08-08T06:36:03;97338.66;;;17.65;100.00
20115;BME280;10218;42.874;25.320;2023-08-08T06:38:30;97328.50;;;17.67;100.00
20115;BME280;10218;42.874;25.320;2023-08-08T06:41:02;97332.22;;;17.66;100.00
20115;BME280;10218;42.874;25.320;2023-08-08T06:43:30;97339.69;;;17.64;100.00
20115;BME280;10218;42.874;25.320;2023-08-08T06:45:57;97325.19;;;17.45;100.00
20115;BME280;10218;42.874;25.320;2023-08-08T06:48:25;97326.19;;;17.64;100.00
20115;BME280;10218;42.874;25.320;2023-08-08T06:50:52;97326.22;;;17.50;100.00
20115;BME280;10218;42.874;25.320;2023-08-08T06:53:19;97318.09;;;17.64;100.00
20115;BME280;10218;42.874;25.320;2023-08-08T06:55:46;97327.63;;;17.73;100.00
20115;BME280;10218;42.874;25.320;2023-08-08T06:58:13;97340.63;;;17.12;100.00
20115;BME280;10218;42.874;25.320;2023-08-08T07:00:40;97359.25;;;17.39;100.00
20115;BME280;10218;42.874;25.320;2023-08-08T07:03:07;97360.91;;;17.60;100.00
20115;BME280;10218;42.874;25.320;2023-08-08T07:05:34;97354.84;;;17.58;100.00
20115;BME280;10218;42.874;25.320;2023-08-08T07:08:02;97343.41;;;17.82;100.00
20115;BME280;10218;42.874;25.320;2023-08-08T07:10:33;97348.44;;;17.59;100.00
20115;BME280;10218;42.874;25.320;2023-08-08T07:13:00;97343.78;;;17.92;100.00
20115;BME280;10218;42.874;25.320;2023-08-08T07:15:27;97346.13;;;17.63;100.00
20115;BME280;10218;42.874;25.320;2023-08-08T07:17:54;97341.59;;;18.14;100.00
20115;BME280;10218;42.874;25.320;2023-08-08T07:20:21;97344.25;;;17.70;100.00
20115;BME280;10218;42.874;25.320;2023-08-08T07:22:49;97342.34;;;17.83;100.00
20115;BME280;10218;42.874;25.320;2023-08-08T07:25:16;97324.22;;;17.97;100.00
20115;BME280;10218;42.874;25.320;2023-08-08T07:27:43;97330.72;;;18.27;100.00
20115;BME280;10218;42.874;25.320;2023-08-08T07:30:11;97347.53;;;17.85;100.00
20115;BME280;10218;42.874;25.320;2023-08-08T07:32:39;97331.50;;;17.97;100.00
20115;BME280;10218;42.874;25.320;2023-08-08T07:35:06;97334.66;;;17.87;100.00
20115;BME280;10218;42.874;25.320;2023-08-08T07:37:35;97330.47;;;17.91;100.00
20115;BME280;10218;42.874;25.320;2023-08-08T07:40:05;97309.50;;;17.86;100.00
20115;BME280;10218;42.874;25.320;2023-08-08T07:42:39;97331.59;;;18.15;100.00
20115;BME280;10218;42.874;25.320;2023-08-08T07:45:07;97318.87;;;18.60;100.00
20115;BME280;10218;42.874;25.320;2023-08-08T07:47:34;97328.97;;;18.39;100.00
20115;BME280;10218;42.874;25.320;2023-08-08T07:50:01;97322.09;;;18.75;100.00
20115;BME280;10218;42.874;25.320;2023-08-08T07:52:29;97325.66;;;18.37;100.00
20115;BME280;10218;42.874;25.320;2023-08-08T07:54:56;97334.09;;;18.16;100.00
20115;BME280;10218;42.874;25.320;2023-08-08T07:57:24;97337.59;;;18.61;100.00
20115;BME280;10218;42.874;25.320;2023-08-08T07:59:53;97346.66;;;18.42;100.00
20115;BME280;10218;42.874;25.320;2023-08-08T08:02:20;97332.59;;;18.90;100.00
20115;BME280;10218;42.874;25.320;2023-08-08T08:04:48;97330.19;;;18.82;100.00
20115;BME280;10218;42.874;25.320;2023-08-08T08:07:15;97326.06;;;19.04;100.00
20115;BME280;10218;42.874;25.320;2023-08-08T08:09:42;97327.69;;;19.54;100.00
20115;BME280;10218;42.874;25.320;2023-08-08T08:12:09;97319.69;;;19.59;100.00
20115;BME280;10218;42.874;25.320;2023-08-08T08:14:36;97323.47;;;19.58;100.00
20115;BME280;10218;42.874;25.320;2023-08-08T08:17:03;97330.50;;;19.16;100.00
20115;BME280;10218;42.874;25.320;2023-08-08T08:19:31;97332.09;;;19.67;100.00
20115;BME280;10218;42.874;25.320;2023-08-08T08:21:58;97328.19;;;19.45;100.00
20115;BME280;10218;42.874;25.320;2023-08-08T08:24:25;97323.97;;;19.49;100.00
20115;BME280;10218;42.874;25.320;2023-08-08T08:26:52;97318.97;;;20.19;100.00
20115;BME280;10218;42.874;25.320;2023-08-08T08:29:19;97318.19;;;20.30;100.00
20115;BME280;10218;42.874;25.320;2023-08-08T08:31:46;97320.28;;;19.98;100.00
20115;BME280;10218;42.874;25.320;2023-08-08T08:34:13;97321.75;;;20.30;100.00
20115;BME280;10218;42.874;25.320;2023-08-08T08:36:40;97315.56;;;20.83;100.00
20115;BME280;10218;42.874;25.320;2023-08-08T08:39:07;97312.22;;;21.22;100.00
20115;BME280;10218;42.874;25.320;2023-08-08T08:41:35;97316.41;;;21.88;100.00
20115;BME280;10218;42.874;25.320;2023-08-08T08:44:04;97319.06;;;21.25;100.00
20115;BME280;10218;42.874;25.320;2023-08-08T08:46:35;97303.94;;;21.52;100.00
20115;BME280;10218;42.874;25.320;2023-08-08T08:49:05;97309.00;;;21.02;100.00
20115;BME280;10218;42.874;25.320;2023-08-08T08:51:38;97309.38;;;21.41;100.00
20115;BME280;10218;42.874;25.320;2023-08-08T08:54:06;97294.56;;;23.47;100.00
20115;BME280;10218;42.874;25.320;2023-08-08T08:56:33;97305.78;;;22.27;100.00
20115;BME280;10218;42.874;25.320;2023-08-08T08:59:00;97297.91;;;22.42;100.00
20115;BME280;10218;42.874;25.320;2023-08-08T09:01:28;97299.66;;;24.03;100.00
20115;BME280;10218;42.874;25.320;2023-08-08T09:03:57;97294.56;;;23.30;100.00
20115;BME280;10218;42.874;25.320;2023-08-08T09:06:24;97290.22;;;23.89;100.00
20115;BME280;10218;42.874;25.320;2023-08-08T09:08:53;97299.25;;;22.39;100.00
20115;BME280;10218;42.874;25.320;2023-08-08T09:11:23;97295.31;;;22.64;100.00
20115;BME280;10218;42.874;25.320;2023-08-08T09:13:50;97305.06;;;22.59;100.00
20115;BME280;10218;42.874;25.320;2023-08-08T09:16:18;97300.16;;;23.57;100.00
20115;BME280;10218;42.874;25.320;2023-08-08T09:18:45;97295.13;;;24.31;100.00
20115;BME280;10218;42.874;25.320;2023-08-08T09:21:12;97298.84;;;24.03;98.72
20115;BME280;10218;42.874;25.320;2023-08-08T09:23:40;97294.38;;;24.89;100.00
20115;BME280;10218;42.874;25.320;2023-08-08T09:26:08;97294.81;;;22.78;100.00
20115;BME280;10218;42.874;25.320;2023-08-08T09:28:35;97296.72;;;22.94;100.00
20115;BME280;10218;42.874;25.320;2023-08-08T09:31:03;97301.22;;;23.22;100.00
20115;BME280;10218;42.874;25.320;2023-08-08T09:33:30;97288.75;;;23.26;100.00
20115;BME280;10218;42.874;25.320;2023-08-08T09:35:57;97298.28;;;23.79;100.00
20115;BME280;10218;42.874;25.320;2023-08-08T09:38:24;97298.03;;;25.04;97.02
20115;BME280;10218;42.874;25.320;2023-08-08T09:40:51;97295.03;;;24.04;92.33
20115;BME280;10218;42.874;25.320;2023-08-08T09:43:18;97301.44;;;25.17;96.50
20115;BME280;10218;42.874;25.320;2023-08-08T09:45:47;97305.44;;;25.41;83.82
20115;BME280;10218;42.874;25.320;2023-08-08T09:48:15;97296.25;;;24.61;91.04
20115;BME280;10218;42.874;25.320;2023-08-08T09:50:44;97306.91;;;25.53;79.49
20115;BME280;10218;42.874;25.320;2023-08-08T09:53:11;97295.91;;;26.68;67.71
20115;BME280;10218;42.874;25.320;2023-08-08T09:55:39;97300.09;;;25.19;70.87
20115;BME280;10218;42.874;25.320;2023-08-08T09:58:07;97286.75;;;26.22;60.75
20115;BME280;10218;42.874;25.320;2023-08-08T10:00:35;97287.63;;;25.80;65.52
20115;BME280;10218;42.874;25.320;2023-08-08T10:03:03;97280.13;;;26.13;70.22
20115;BME280;10218;42.874;25.320;2023-08-08T10:05:30;97285.41;;;24.93;73.19
20115;BME280;10218;42.874;25.320;2023-08-08T10:07:58;97285.94;;;24.95;68.98
20115;BME280;10218;42.874;25.320;2023-08-08T10:10:26;97284.75;;;27.15;65.20
20115;BME280;10218;42.874;25.320;2023-08-08T10:12:53;97286.31;;;26.50;66.46
20115;BME280;10218;42.874;25.320;2023-08-08T10:15:25;97293.72;;;25.50;70.22
20115;BME280;10218;42.874;25.320;2023-08-08T10:17:55;97294.84;;;25.96;69.43
20115;BME280;10218;42.874;25.320;2023-08-08T10:20:26;97295.59;;;25.03;72.26
20115;BME280;10218;42.874;25.320;2023-08-08T10:22:54;97276.50;;;25.08;68.29
20115;BME280;10218;42.874;25.320;2023-08-08T10:25:27;97282.53;;;26.76;61.22
20115;BME280;10218;42.874;25.320;2023-08-08T10:28:05;97281.41;;;27.48;59.88
20115;BME280;10218;42.874;25.320;2023-08-08T10:30:55;97277.50;;;24.97;64.88
20115;BME280;10218;42.874;25.320;2023-08-08T10:33:39;97280.72;;;24.89;66.43
20115;BME280;10218;42.874;25.320;2023-08-08T10:36:07;97281.44;;;26.88;61.53
20115;BME280;10218;42.874;25.320;2023-08-08T10:38:57;97281.75;;;27.16;58.53
20115;BME280;10218;42.874;25.320;2023-08-08T10:41:26;97281.41;;;27.48;55.53
20115;BME280;10218;42.874;25.320;2023-08-08T10:43:56;97273.09;;;27.89;48.40
20115;BME280;10218;42.874;25.320;2023-08-08T10:46:27;97275.97;;;27.18;50.59
20115;BME280;10218;42.874;25.320;2023-08-08T10:49:00;97288.03;;;27.52;48.89
20115;BME280;10218;42.874;25.320;2023-08-08T10:51:42;97277.69;;;26.21;54.88
20115;BME280;10218;42.874;25.320;2023-08-08T10:54:15;97277.34;;;25.97;53.74
20115;BME280;10218;42.874;25.320;2023-08-08T10:56:53;97272.06;;;28.44;46.78
20115;BME280;10218;42.874;25.320;2023-08-08T10:59:27;97260.31;;;28.33;48.48
20115;BME280;10218;42.874;25.320;2023-08-08T11:01:56;97274.28;;;27.68;51.16
20115;BME280;10218;42.874;25.320;2023-08-08T11:04:26;97264.56;;;24.34;63.83
20115;BME280;10218;42.874;25.320;2023-08-08T11:06:55;97271.59;;;27.07;52.13
20115;BME280;10218;42.874;25.320;2023-08-08T11:09:23;97274.03;;;27.54;51.34
20115;BME280;10218;42.874;25.320;2023-08-08T11:11:50;97277.34;;;27.31;46.67
20115;BME280;10218;42.874;25.320;2023-08-08T11:14:22;97272.59;;;27.82;45.14
20115;BME280;10218;42.874;25.320;2023-08-08T11:16:50;97275.41;;;27.51;47.42
20115;BME280;10218;42.874;25.320;2023-08-08T11:19:18;97269.38;;;27.29;48.93
20115;BME280;10218;42.874;25.320;2023-08-08T11:21:49;97264.13;;;26.67;46.60
20115;BME280;10218;42.874;25.320;2023-08-08T11:24:16;97263.75;;;27.90;44.72
20115;BME280;10218;42.874;25.320;2023-08-08T11:26:44;97260.59;;;26.81;46.64
20115;BME280;10218;42.874;25.320;2023-08-08T11:29:14;97279.00;;;28.31;44.27
20115;BME280;10218;42.874;25.320;2023-08-08T11:31:41;97275.41;;;27.26;42.67
20115;BME280;10218;42.874;25.320;2023-08-08T11:34:08;97257.84;;;27.42;41.30
20115;BME280;10218;42.874;25.320;2023-08-08T11:36:37;97261.12;;;27.49;43.54
20115;BME280;10218;42.874;25.320;2023-08-08T11:39:05;97265.97;;;27.93;42.04
20115;BME280;10218;42.874;25.320;2023-08-08T11:41:37;97265.81;;;25.90;43.95
20115;BME280;10218;42.874;25.320;2023-08-08T11:44:05;97268.34;;;25.55;44.99
20115;BME280;10218;42.874;25.320;2023-08-08T11:46:34;97260.66;;;26.04;42.79
20115;BME280;10218;42.874;25.320;2023-08-08T11:49:05;97251.25;;;27.38;43.31
20115;BME280;10218;42.874;25.320;2023-08-08T11:51:36;97257.00;;;24.67;46.40
20115;BME280;10218;42.874;25.320;2023-08-08T11:54:04;97248.09;;;26.18;46.91
20115;BME280;10218;42.874;25.320;2023-08-08T11:56:34;97242.84;;;26.07;50.67
20115;BME280;10218;42.874;25.320;2023-08-08T11:59:02;97245.62;;;26.17;47.05
20115;BME280;10218;42.874;25.320;2023-08-08T12:01:31;97245.06;;;26.05;47.72
20115;BME280;10218;42.874;25.320;2023-08-08T12:04:04;97250.72;;;27.26;50.99
20115;BME280;10218;42.874;25.320;2023-08-08T12:06:31;97233.22;;;26.92;43.87
20115;BME280;10218;42.874;25.320;2023-08-08T12:09:01;97246.16;;;26.09;46.06
20115;BME280;10218;42.874;25.320;2023-08-08T12:11:28;97235.06;;;28.26;43.54
20115;BME280;10218;42.874;25.320;2023-08-08T12:13:59;97241.28;;;28.42;41.26
20115;BME280;10218;42.874;25.320;2023-08-08T12:16:30;97246.91;;;25.84;46.72
20115;BME280;10218;42.874;25.320;2023-08-08T12:19:02;97233.22;;;24.68;49.23
20115;BME280;10218;42.874;25.320;2023-08-08T12:21:29;97240.22;;;26.32;49.49
20115;BME280;10218;42.874;25.320;2023-08-08T12:23:57;97228.34;;;26.11;46.91
20115;BME280;10218;42.874;25.320;2023-08-08T12:26:25;97234.63;;;26.02;47.55
20115;BME280;10218;42.874;25.320;2023-08-08T12:28:52;97239.59;;;25.10;51.28
20115;BME280;10218;42.874;25.320;2023-08-08T12:31:20;97242.28;;;25.05;50.45
20115;BME280;10218;42.874;25.320;2023-08-08T12:33:48;97240.13;;;26.07;48.24
20115;BME280;10218;42.874;25.320;2023-08-08T12:36:15;97237.03;;;27.11;45.50
20115;BME280;10218;42.874;25.320;2023-08-08T12:38:42;97235.31;;;26.44;47.49
20115;BME280;10218;42.874;25.320;2023-08-08T12:41:10;97230.41;;;26.41;48.31
20115;BME280;10218;42.874;25.320;2023-08-08T12:43:38;97241.53;;;26.19;47.56
20115;BME280;10218;42.874;25.320;2023-08-08T12:46:05;97236.22;;;25.87;46.57
20115;BME280;10218;42.874;25.320;2023-08-08T12:48:32;97221.63;;;26.34;45.96
20115;BME280;10218;42.874;25.320;2023-08-08T12:51:00;97216.28;;;28.43;48.66